Time;durP1;ratioP1;P1;durP2;ratioP2;P2;SDS_P1;SDS_P2;PMS_P1;PMS_P2;Temp;Humidity;BMP_temperature;BMP_pressure;BME280_temperature;BME280_humidity;BME280_pressure;Samples;Min_cycle;Max_cycle;Signal;HPM_P1;HPM_P2
2023/12/19 00:00:29;;;;;;;22.98;12.68;;;;;;;-1.82;100.00;100100.97;5022394;28;20037;-75
2023/12/19 00:02:55;;;;;;;29.08;14.15;;;;;;;-1.70;100.00;100113.50;5024922;28;20029;-75
2023/12/19 00:05:20;;;;;;;27.98;14.18;;;;;;;-1.69;100.00;100112.56;5013849;28;20048;-75
2023/12/19 00:07:46;;;;;;;26.15;13.18;;;;;;;-1.76;100.00;100095.28;5029576;28;20025;-75
2023/12/19 00:10:11;;;;;;;24.77;12.55;;;;;;;-1.72;100.00;100103.94;5026003;28;20024;-75
2023/12/19 00:12:37;;;;;;;21.75;11.70;;;;;;;-1.63;100.00;100108.66;5026065;28;20381;-75
2023/12/19 00:15:03;;;;;;;25.42;11.80;;;;;;;-1.68;100.00;100097.47;5023960;28;20017;-75
2023/12/19 00:17:28;;;;;;;17.77;9.77;;;;;;;-1.66;100.00;100096.44;5047585;28;20044;-74
2023/12/19 00:19:56;;;;;;;18.48;9.40;;;;;;;-1.57;100.00;100095.91;5029283;28;20025;-75
2023/12/19 00:22:21;;;;;;;20.70;10.43;;;;;;;-1.50;100.00;100084.88;5044499;28;20051;-75
2023/12/19 00:24:47;;;;;;;23.65;11.02;;;;;;;-1.56;100.00;100065.75;5044938;28;20026;-75
2023/12/19 00:27:12;;;;;;;21.95;11.60;;;;;;;-1.62;100.00;100057.31;5036685;28;20032;-75
2023/12/19 00:29:38;;;;;;;23.63;11.40;;;;;;;-1.79;100.00;100056.53;5047796;28;20025;-75
2023/12/19 00:32:03;;;;;;;18.80;10.93;;;;;;;-1.81;100.00;100060.22;5043532;28;20048;-75
2023/12/19 00:34:29;;;;;;;26.25;12.02;;;;;;;-1.75;100.00;100074.94;5042961;28;20021;-75
2023/12/19 00:36:54;;;;;;;21.30;11.32;;;;;;;-2.00;100.00;100044.59;5025992;28;20029;-75
2023/12/19 00:39:19;;;;;;;24.70;11.32;;;;;;;-1.99;100.00;100035.72;5042883;28;20089;-75
2023/12/19 00:41:45;;;;;;;19.20;10.93;;;;;;;-1.95;100.00;100049.63;5026141;28;20108;-75
2023/12/19 00:44:10;;;;;;;22.17;11.23;;;;;;;-1.92;100.00;100065.34;5028302;28;20025;-75
2023/12/19 00:46:35;;;;;;;23.65;10.98;;;;;;;-1.94;100.00;100048.66;5022425;28;20043;-75
2023/12/19 00:49:00;;;;;;;20.70;10.90;;;;;;;-1.90;100.00;100068.78;5047786;28;20336;-75
2023/12/19 00:51:26;;;;;;;22.55;11.38;;;;;;;-2.09;100.00;100048.66;5049898;28;20100;-75
2023/12/19 00:53:51;;;;;;;22.05;10.75;;;;;;;-1.95;100.00;100063.72;5046415;28;20033;-75
2023/12/19 00:56:16;;;;;;;24.77;10.52;;;;;;;-2.11;100.00;100029.34;5044220;28;20281;-75
2023/12/19 00:58:43;;;;;;;24.88;11.35;;;;;;;-1.79;100.00;100059.19;5048450;28;20056;-74
2023/12/19 01:01:08;;;;;;;26.15;12.15;;;;;;;-1.83;100.00;100051.53;5030187;28;20353;-75
2023/12/19 01:03:34;;;;;;;25.60;12.05;;;;;;;-1.93;100.00;100059.19;5047188;28;20052;-75
2023/12/19 01:06:02;;;;;;;21.48;10.88;;;;;;;-1.93;100.00;100061.84;5047436;28;20032;-75
2023/12/19 01:08:27;;;;;;;21.73;11.25;;;;;;;-1.96;100.00;100067.34;5047531;28;20065;-75
2023/12/19 01:10:53;;;;;;;21.92;10.77;;;;;;;-2.02;100.00;100073.00;5049335;28;20029;-75
2023/12/19 01:13:19;;;;;;;23.42;12.13;;;;;;;-2.14;100.00;100050.75;5041355;28;20025;-75
2023/12/19 01:15:44;;;;;;;22.83;12.52;;;;;;;-2.19;100.00;100039.56;5033310;28;20261;-75
2023/12/19 01:18:10;;;;;;;25.95;12.40;;;;;;;-2.13;100.00;100055.09;5047784;28;20017;-75
2023/12/19 01:20:35;;;;;;;24.10;12.77;;;;;;;-2.08;100.00;100047.72;5046614;28;20032;-75
2023/12/19 01:23:00;;;;;;;25.77;12.15;;;;;;;-2.26;100.00;100031.09;5031637;28;20029;-75
2023/12/19 01:25:25;;;;;;;25.20;13.23;;;;;;;-2.15;100.00;100046.38;5031349;28;20017;-75
2023/12/19 01:27:51;;;;;;;25.23;12.98;;;;;;;-2.46;100.00;100024.34;5049261;28;20057;-75
2023/12/19 01:30:16;;;;;;;24.55;12.30;;;;;;;-2.22;100.00;100090.97;5033345;28;20025;-75
2023/12/19 01:32:41;;;;;;;23.65;11.30;;;;;;;-2.31;100.00;100080.03;5044352;28;20017;-75
2023/12/19 01:35:07;;;;;;;22.17;11.70;;;;;;;-2.45;100.00;100047.25;5058383;28;20063;-75
2023/12/19 01:37:32;;;;;;;22.75;12.25;;;;;;;-2.13;100.00;100076.28;5031555;28;20335;-74
2023/12/19 01:39:57;;;;;;;24.55;11.95;;;;;;;-2.24;100.00;100047.78;5023662;28;20310;-75
2023/12/19 01:42:24;;;;;;;23.52;12.05;;;;;;;-2.06;100.00;100067.03;5032383;28;20021;-75
2023/12/19 01:45:10;;;;;;;24.27;12.38;;;;;;;-2.30;100.00;100024.28;5032247;28;20044;-74
2023/12/19 01:47:40;;;;;;;24.40;11.10;;;;;;;-2.02;100.00;100078.31;5034512;28;20108;-74
2023/12/19 01:50:16;;;;;;;25.55;11.60;;;;;;;-2.15;100.00;100051.66;5030813;28;20022;-76
2023/12/19 01:52:44;;;;;;;24.65;10.60;;;;;;;-2.08;100.00;100063.63;5048329;28;20048;-75
2023/12/19 01:55:10;;;;;;;19.08;10.38;;;;;;;-2.10;100.00;100060.19;5042104;28;20070;-75
2023/12/19 01:57:36;;;;;;;19.90;9.80;;;;;;;-2.02;100.00;100063.28;5042404;28;20025;-76
2023/12/19 02:00:03;;;;;;;18.80;8.60;;;;;;;-2.08;100.00;100063.63;5048245;28;20026;-76
2023/12/19 02:02:29;;;;;;;17.23;8.25;;;;;;;-1.97;100.00;100076.22;5057651;28;20033;-75
2023/12/19 02:04:56;;;;;;;19.88;10.70;;;;;;;-1.96;100.00;100080.59;5048141;28;20032;-75
2023/12/19 02:07:21;;;;;;;23.42;10.68;;;;;;;-2.19;100.00;100068.72;5039427;28;20311;-75
2023/12/19 02:09:47;;;;;;;20.65;9.77;;;;;;;-2.33;100.00;100069.53;5035074;28;20061;-75
2023/12/19 02:12:12;;;;;;;20.00;9.68;;;;;;;-2.31;100.00;100070.28;5042008;28;20084;-75
2023/12/19 02:14:39;;;;;;;19.40;9.00;;;;;;;-2.39;100.00;100063.72;5040279;28;20033;-75
2023/12/19 02:17:04;;;;;;;17.50;8.88;;;;;;;-2.24;100.00;100046.94;5059394;28;20032;-76
2023/12/19 02:19:29;;;;;;;29.10;12.57;;;;;;;-2.31;100.00;100034.97;5050622;28;20018;-75
2023/12/19 02:21:55;;;;;;;29.92;14.57;;;;;;;-2.25;100.00;100051.38;5030178;28;20055;-76
2023/12/19 02:24:20;;;;;;;28.85;13.57;;;;;;;-2.53;100.00;100014.22;5028479;28;20033;-76
2023/12/19 02:26:45;;;;;;;20.23;11.15;;;;;;;-2.34;100.00;100057.22;5026758;28;20025;-75
2023/12/19 02:29:12;;;;;;;19.13;9.98;;;;;;;-2.27;100.00;100057.72;5027500;28;20253;-76
2023/12/19 02:31:37;;;;;;;18.63;9.52;;;;;;;-2.40;100.00;100025.78;5044023;28;20047;-76
2023/12/19 02:34:02;;;;;;;18.35;9.60;;;;;;;-2.37;100.00;100030.91;5030620;28;20025;-76
2023/12/19 02:36:27;;;;;;;20.90;9.50;;;;;;;-2.45;100.00;100035.81;5045971;28;20060;-75
2023/12/19 02:38:53;;;;;;;21.15;10.48;;;;;;;-2.45;100.00;100036.66;5029283;28;20032;-75
2023/12/19 02:41:18;;;;;;;23.52;11.55;;;;;;;-2.51;100.00;100039.66;5029444;28;20021;-76
2023/12/19 02:43:43;;;;;;;21.17;10.90;;;;;;;-2.57;100.00;100037.34;5040021;28;20067;-75
2023/12/19 02:46:09;;;;;;;21.45;10.32;;;;;;;-2.68;100.00;100037.97;5029747;28;20041;-76
2023/12/19 02:48:34;;;;;;;23.42;10.88;;;;;;;-2.66;100.00;100041.41;5028933;28;20036;-76
2023/12/19 02:50:59;;;;;;;23.50;11.43;;;;;;;-2.67;100.00;100045.00;5029391;28;20262;-75
2023/12/19 02:53:27;;;;;;;25.65;11.13;;;;;;;-2.71;100.00;100029.38;5047229;28;20025;-76
2023/12/19 02:55:52;;;;;;;23.70;10.80;;;;;;;-2.51;100.00;100038.81;5045809;28;20025;-75
2023/12/19 02:58:17;;;;;;;22.85;10.52;;;;;;;-2.47;100.00;100046.47;5028739;28;20085;-76
2023/12/19 03:00:43;;;;;;;25.10;11.38;;;;;;;-2.52;100.00;100031.78;5033187;28;20100;-75
2023/12/19 03:03:08;;;;;;;22.35;11.00;;;;;;;-2.62;100.00;100015.59;5034809;28;20056;-76
2023/12/19 03:05:34;;;;;;;21.60;10.70;;;;;;;-2.37;100.00;100040.66;5034393;28;20037;-76
2023/12/19 03:07:59;;;;;;;22.00;11.18;;;;;;;-2.67;100.00;100002.63;5024815;28;20049;-75
2023/12/19 03:10:24;;;;;;;21.33;11.60;;;;;;;-2.64;100.00;100014.84;5029398;28;20021;-76
2023/12/19 03:12:50;;;;;;;24.65;10.90;;;;;;;-2.53;100.00;100024.81;5026161;28;20254;-75
2023/12/19 03:15:15;;;;;;;22.42;10.85;;;;;;;-2.76;100.00;99973.16;5043458;28;20062;-76
2023/12/19 03:17:40;;;;;;;21.30;9.43;;;;;;;-2.47;100.00;100003.22;5029969;28;20013;-75
2023/12/19 03:20:07;;;;;;;24.80;9.73;;;;;;;-2.47;100.00;99992.63;5048847;28;20097;-75
2023/12/19 03:22:33;;;;;;;22.08;10.48;;;;;;;-2.54;100.00;99964.78;5030574;28;20021;-76
2023/12/19 03:24:58;;;;;;;25.38;10.63;;;;;;;-2.52;100.00;99961.09;5047997;28;20029;-76
2023/12/19 03:27:23;;;;;;;22.30;10.40;;;;;;;-2.43;100.00;99987.06;5046379;28;20017;-76
2023/12/19 03:29:48;;;;;;;21.15;10.88;;;;;;;-2.74;100.00;99936.84;5026428;28;20018;-76
2023/12/19 03:32:14;;;;;;;25.13;11.82;;;;;;;-2.55;100.00;99982.50;5033413;28;20028;-76
2023/12/19 03:34:39;;;;;;;20.23;10.85;;;;;;;-2.59;100.00;99996.00;5026967;28;20030;-76
2023/12/19 03:37:05;;;;;;;20.05;9.18;;;;;;;-2.64;100.00;100001.59;5047359;28;20048;-76
2023/12/19 03:39:30;;;;;;;22.80;9.00;;;;;;;-2.65;100.00;100005.16;5047629;28;20072;-76
2023/12/19 03:41:55;;;;;;;17.50;8.60;;;;;;;-2.80;100.00;100001.63;5049500;28;20022;-77
2023/12/19 03:44:21;;;;;;;18.30;9.57;;;;;;;-2.88;100.00;99982.69;5052539;28;20036;-77
2023/12/19 03:46:46;;;;;;;19.40;9.73;;;;;;;-2.98;100.00;99968.28;5039262;28;20052;-76
2023/12/19 03:49:12;;;;;;;19.33;9.23;;;;;;;-2.97;100.00;99965.53;5066725;28;20087;-75
2023/12/19 03:51:38;;;;;;;20.63;10.10;;;;;;;-2.85;100.00;99976.38;5046588;28;20041;-76
2023/12/19 03:54:03;;;;;;;20.55;10.82;;;;;;;-2.90;100.00;99964.25;5045258;28;20013;-75
2023/12/19 03:56:28;;;;;;;22.38;10.48;;;;;;;-2.77;100.00;99974.13;5050187;28;20044;-75
2023/12/19 03:58:53;;;;;;;22.08;12.20;;;;;;;-2.84;100.00;99956.88;5039358;28;20029;-76
2023/12/19 04:01:20;;;;;;;21.02;10.82;;;;;;;-2.90;100.00;99958.94;5047455;28;20028;-76
2023/12/19 04:03:45;;;;;;;27.17;11.60;;;;;;;-3.01;100.00;99924.31;5039306;28;20021;-75
2023/12/19 04:06:11;;;;;;;23.95;11.10;;;;;;;-2.80;100.00;99968.97;5045544;28;20033;-76
2023/12/19 04:08:36;;;;;;;24.02;11.50;;;;;;;-3.07;100.00;99929.94;5055039;28;20021;-75
2023/12/19 04:11:01;;;;;;;25.73;11.90;;;;;;;-2.96;100.00;99939.91;5052935;28;20052;-76
2023/12/19 04:13:27;;;;;;;24.00;12.10;;;;;;;-3.16;100.00;99917.25;5036941;28;20151;-76
2023/12/19 04:15:52;;;;;;;24.13;12.23;;;;;;;-2.83;100.00;99958.56;5034430;28;20033;-76
2023/12/19 04:18:18;;;;;;;21.88;11.95;;;;;;;-3.11;100.00;99920.50;5067115;28;20037;-76
2023/12/19 04:20:43;;;;;;;23.88;12.00;;;;;;;-3.04;100.00;99937.69;5047460;28;20096;-75
2023/12/19 04:23:09;;;;;;;19.88;10.80;;;;;;;-3.00;100.00;99952.47;5054681;28;20033;-75
2023/12/19 04:25:35;;;;;;;22.58;11.10;;;;;;;-3.12;100.00;99934.66;5019533;28;20030;-75
2023/12/19 04:28:00;;;;;;;20.42;10.75;;;;;;;-2.98;100.00;99957.69;5059513;22;20025;-73
2023/12/19 04:30:25;;;;;;;19.00;9.77;;;;;;;-3.04;100.00;99961.53;5081433;28;20028;-73
2023/12/19 04:32:52;;;;;;;19.17;9.73;;;;;;;-3.08;100.00;99963.50;5086305;28;20140;-73
2023/12/19 04:35:17;;;;;;;17.00;8.57;;;;;;;-3.15;100.00;99961.28;5081359;28;20032;-73
2023/12/19 04:37:43;;;;;;;22.35;9.55;;;;;;;-3.21;100.00;99941.34;5059842;28;20099;-73
2023/12/19 04:40:08;;;;;;;18.67;9.35;;;;;;;-3.03;100.00;99939.41;5053539;28;20086;-73
2023/12/19 04:42:33;;;;;;;23.33;10.85;;;;;;;-3.06;100.00;99939.59;5028523;28;20345;-73
2023/12/19 04:44:59;;;;;;;21.65;10.65;;;;;;;-3.03;100.00;99957.09;5028765;28;20226;-73
2023/12/19 04:47:24;;;;;;;20.08;10.00;;;;;;;-3.31;100.00;99924.28;5041402;28;20035;-73
2023/12/19 04:49:49;;;;;;;23.02;11.00;;;;;;;-3.25;100.00;99939.78;5045077;28;20100;-73
2023/12/19 04:52:14;;;;;;;20.38;10.02;;;;;;;-3.38;100.00;99907.03;5060995;28;20017;-73
2023/12/19 04:54:40;;;;;;;25.88;10.63;;;;;;;-3.30;100.00;99907.47;5057431;28;20035;-75
2023/12/19 04:57:06;;;;;;;26.70;10.82;;;;;;;-3.16;100.00;99915.44;5038733;28;20036;-75
2023/12/19 04:59:32;;;;;;;28.15;12.63;;;;;;;-3.22;100.00;99899.06;5036604;28;20017;-75
2023/12/19 05:01:57;;;;;;;23.30;11.15;;;;;;;-3.09;100.00;99915.97;5057440;28;20033;-75
2023/12/19 05:04:23;;;;;;;20.38;10.18;;;;;;;-3.18;100.00;99912.03;5065931;28;20028;-75
2023/12/19 05:06:48;;;;;;;21.65;10.95;;;;;;;-3.26;100.00;99913.44;5061618;28;20033;-75
2023/12/19 05:09:13;;;;;;;20.10;10.52;;;;;;;-3.42;100.00;99918.75;5047004;28;20021;-75
2023/12/19 05:11:42;;;;;;;20.77;10.85;;;;;;;-3.50;100.00;99924.47;5049768;28;20021;-75
2023/12/19 05:14:08;;;;;;;24.23;11.65;;;;;;;-3.60;100.00;99902.13;5062525;28;20203;-75
2023/12/19 05:16:33;;;;;;;17.80;9.55;;;;;;;-3.65;100.00;99896.25;5058051;28;20031;-75
2023/12/19 05:18:58;;;;;;;20.80;10.18;;;;;;;-3.62;100.00;99904.00;5060713;28;20328;-75
2023/12/19 05:21:24;;;;;;;19.23;9.18;;;;;;;-3.67;100.00;99906.88;5048248;28;20021;-75
2023/12/19 05:23:49;;;;;;;20.60;9.65;;;;;;;-3.68;100.00;99904.34;5044463;28;20021;-75
2023/12/19 05:26:14;;;;;;;22.00;10.60;;;;;;;-3.56;100.00;99909.81;5043507;28;20028;-76
2023/12/19 05:28:40;;;;;;;26.83;12.75;;;;;;;-3.69;100.00;99890.28;5042527;28;20025;-74
2023/12/19 05:31:07;;;;;;;29.00;12.25;;;;;;;-3.38;100.00;99926.44;5041440;28;20043;-74
2023/12/19 05:33:34;;;;;;;25.77;11.93;;;;;;;-3.47;100.00;99926.94;5050270;28;20370;-74
2023/12/19 05:35:59;;;;;;;23.10;10.15;;;;;;;-3.76;100.00;99899.50;5058475;28;20029;-74
2023/12/19 05:38:24;;;;;;;20.35;9.10;;;;;;;-3.78;100.00;99915.44;5060742;28;20020;-74
2023/12/19 05:40:56;;;;;;;22.55;9.85;;;;;;;-3.82;100.00;99927.13;5055625;28;20056;-74
2023/12/19 05:43:21;;;;;;;18.42;9.40;;;;;;;-4.00;100.00;99899.06;5035180;28;20025;-74
2023/12/19 05:45:46;;;;;;;20.63;10.60;;;;;;;-3.86;100.00;99915.00;5055813;28;20107;-74
2023/12/19 05:48:12;;;;;;;27.85;12.25;;;;;;;-3.84;100.00;99907.00;5047168;28;20035;-75
2023/12/19 05:50:37;;;;;;;25.17;11.75;;;;;;;-3.76;100.00;99910.91;5064563;28;20033;-76
2023/12/19 05:53:03;;;;;;;25.10;12.57;;;;;;;-3.69;100.00;99911.44;5048469;28;20318;-75
2023/12/19 05:55:28;;;;;;;20.35;11.38;;;;;;;-3.52;100.00;99918.41;5067614;28;20318;-74
2023/12/19 05:57:53;;;;;;;26.25;12.77;;;;;;;-3.58;100.00;99926.69;5050450;28;20017;-75
2023/12/19 06:00:19;;;;;;;22.65;12.23;;;;;;;-3.75;100.00;99901.19;5040042;28;20019;-75
2023/12/19 06:02:45;;;;;;;30.63;14.32;;;;;;;-3.68;100.00;99915.78;5038419;28;20096;-75
2023/12/19 06:05:11;;;;;;;24.92;11.32;;;;;;;-3.82;100.00;99879.53;5063580;28;20309;-74
2023/12/19 06:07:37;;;;;;;25.00;10.77;;;;;;;-3.49;100.00;99922.69;5063434;28;20029;-78
2023/12/19 06:10:08;;;;;;;21.88;10.35;;;;;;;-3.59;100.00;99922.31;5055968;28;20024;-77
2023/12/19 06:12:34;;;;;;;19.35;9.50;;;;;;;-3.50;100.00;99937.69;5055977;28;20059;-77
2023/12/19 06:14:59;;;;;;;23.08;10.32;;;;;;;-3.59;100.00;99938.19;5049918;28;20021;-76
2023/12/19 06:17:24;;;;;;;22.88;10.75;;;;;;;-3.67;100.00;99935.97;5070985;28;20021;-76
2023/12/19 06:19:50;;;;;;;25.63;9.18;;;;;;;-3.65;100.00;99954.41;5069139;28;20089;-76
2023/12/19 06:22:15;;;;;;;12.63;7.00;;;;;;;-3.59;100.00;99943.50;5070731;28;20047;-75
2023/12/19 06:24:40;;;;;;;18.58;7.90;;;;;;;-3.63;100.00;99926.94;5060246;28;20020;-76
2023/12/19 06:27:06;;;;;;;17.95;8.50;;;;;;;-3.43;100.00;99943.47;5040966;28;20252;-77
2023/12/19 06:29:31;;;;;;;21.80;8.98;;;;;;;-3.53;100.00;99932.59;5054525;28;20023;-75
2023/12/19 06:31:56;;;;;;;20.92;7.65;;;;;;;-3.55;100.00;99921.22;5040433;28;20032;-76
2023/12/19 06:34:22;;;;;;;16.60;8.55;;;;;;;-3.64;100.00;99929.66;5041776;28;20198;-75
2023/12/19 06:36:47;;;;;;;19.63;8.43;;;;;;;-3.81;100.00;99912.94;5060619;28;20032;-76
2023/12/19 06:39:12;;;;;;;16.35;8.45;;;;;;;-3.69;100.00;99926.41;5062308;28;20028;-76
2023/12/19 06:41:38;;;;;;;17.55;8.15;;;;;;;-3.75;100.00;99904.69;5060982;28;20424;-77
2023/12/19 06:44:03;;;;;;;21.48;9.30;;;;;;;-3.58;100.00;99935.47;5032310;28;20025;-75
2023/12/19 06:46:28;;;;;;;17.15;7.40;;;;;;;-3.72;100.00;99918.66;5057536;28;20044;-75
2023/12/19 06:48:54;;;;;;;18.83;8.57;;;;;;;-3.72;100.00;99926.59;5060976;28;20222;-75
2023/12/19 06:51:26;;;;;;;23.73;9.63;;;;;;;-3.55;100.00;99934.47;5059773;28;20028;-77
2023/12/19 06:53:54;;;;;;;19.05;8.75;;;;;;;-3.67;100.00;99909.53;5058767;28;20029;-77
2023/12/19 06:56:20;;;;;;;17.23;7.17;;;;;;;-3.47;100.00;99932.22;5056995;28;20021;-76
2023/12/19 06:58:45;;;;;;;17.13;8.25;;;;;;;-3.41;100.00;99921.28;5050387;28;20029;-77
2023/12/19 07:01:10;;;;;;;18.63;9.00;;;;;;;-3.41;100.00;99905.41;5054116;28;20139;-77
2023/12/19 07:03:36;;;;;;;22.20;8.30;;;;;;;-3.27;100.00;99917.88;5045527;28;20028;-77
2023/12/19 07:06:02;;;;;;;20.27;8.48;;;;;;;-3.33;100.00;99903.22;5058598;28;20025;-77
2023/12/19 07:08:28;;;;;;;19.05;8.20;;;;;;;-3.21;100.00;99916.66;5037924;28;20025;-76
2023/12/19 07:10:53;;;;;;;15.93;7.72;;;;;;;-3.17;100.00;99907.59;5055927;28;20088;-77
2023/12/19 07:13:18;;;;;;;17.42;8.75;;;;;;;-3.22;100.00;99899.06;5063750;28;20017;-79
2023/12/19 07:15:43;;;;;;;18.70;8.90;;;;;;;-3.23;100.00;99913.25;5052248;28;20097;-76
2023/12/19 07:18:09;;;;;;;17.77;8.35;;;;;;;-3.23;100.00;99945.84;5059728;28;20088;-75
2023/12/19 07:20:34;;;;;;;37.13;13.10;;;;;;;-3.20;100.00;99947.47;5063494;28;20085;-76
2023/12/19 07:22:59;;;;;;;29.73;11.90;;;;;;;-3.20;100.00;99934.25;5045316;28;20024;-76
2023/12/19 07:25:25;;;;;;;37.17;12.52;;;;;;;-3.32;100.00;99893.47;5046092;28;20334;-76
2023/12/19 07:27:50;;;;;;;23.92;10.98;;;;;;;-3.33;100.00;99900.56;5046973;28;20289;-76
2023/12/19 07:30:15;;;;;;;22.75;11.23;;;;;;;-3.01;100.00;99940.19;5068169;28;20034;-76
2023/12/19 07:32:41;;;;;;;25.80;10.95;;;;;;;-3.11;100.00;99918.69;5056448;28;20021;-75
2023/12/19 07:35:07;;;;;;;58.38;18.15;;;;;;;-3.02;100.00;99914.63;5043024;28;20027;-76
2023/12/19 07:37:32;;;;;;;50.88;15.60;;;;;;;-2.94;100.00;99919.47;5062469;28;20021;-76
2023/12/19 07:39:59;;;;;;;24.95;12.05;;;;;;;-2.80;100.00;99943.38;5061218;28;20056;-76
2023/12/19 07:42:24;;;;;;;27.92;13.45;;;;;;;-2.88;100.00;99925.28;5050565;28;20021;-76
2023/12/19 07:44:49;;;;;;;28.60;13.25;;;;;;;-2.90;100.00;99916.56;5059812;28;20051;-76
2023/12/19 07:47:15;;;;;;;33.85;15.90;;;;;;;-2.69;100.00;99929.50;5059677;28;20020;-76
2023/12/19 07:49:40;;;;;;;35.60;17.27;;;;;;;-2.54;100.00;99920.63;5058226;28;20032;-76
2023/12/19 07:52:05;;;;;;;32.67;17.00;;;;;;;-2.53;100.00;99935.56;5042692;28;20334;-76
2023/12/19 07:54:31;;;;;;;37.42;17.33;;;;;;;-2.42;100.00;99933.13;5080157;28;20024;-76
2023/12/19 07:56:58;;;;;;;37.97;18.08;;;;;;;-2.38;100.00;99909.06;5069149;28;20021;-76
2023/12/19 07:59:23;;;;;;;29.38;14.23;;;;;;;-2.25;100.00;99928.59;5081135;28;20024;-76
2023/12/19 08:01:48;;;;;;;30.50;12.77;;;;;;;-2.23;100.00;99889.56;5048527;28;20033;-76
2023/12/19 08:04:14;;;;;;;22.60;11.15;;;;;;;-1.80;100.00;99937.28;5049077;28;20313;-76
2023/12/19 08:06:41;;;;;;;26.08;11.73;;;;;;;-1.72;100.00;99926.19;5056718;28;20033;-76
2023/12/19 08:09:10;;;;;;;22.52;11.50;;;;;;;-1.59;100.00;99912.03;5031151;28;20017;-76
2023/12/19 08:11:35;;;;;;;25.55;10.77;;;;;;;-1.76;100.00;99880.41;5058326;28;20029;-75
2023/12/19 08:14:01;;;;;;;18.63;9.13;;;;;;;-1.77;100.00;99866.31;5065589;28;20099;-76
2023/12/19 08:16:26;;;;;;;19.98;9.27;;;;;;;-1.57;100.00;99907.47;5065611;28;20100;-76
2023/12/19 08:18:52;;;;;;;23.67;9.95;;;;;;;-1.55;100.00;99908.25;5064419;28;20048;-76
2023/12/19 08:21:17;;;;;;;38.22;12.20;;;;;;;-1.41;100.00;99914.44;5066331;28;20088;-76
2023/12/19 08:23:45;;;;;;;26.90;13.10;;;;;;;-1.45;100.00;99913.78;5048895;28;20099;-76
2023/12/19 08:26:10;;;;;;;33.22;13.18;;;;;;;-1.37;100.00;99910.63;5076330;28;20020;-76
2023/12/19 08:28:36;;;;;;;25.33;13.82;;;;;;;-1.46;100.00;99896.16;5068374;28;20028;-76
2023/12/19 08:31:03;;;;;;;26.60;13.32;;;;;;;-1.40;100.00;99868.38;5057496;28;20033;-76
2023/12/19 08:33:28;;;;;;;23.40;12.63;;;;;;;-1.38;100.00;99888.56;5046505;28;20334;-76
2023/12/19 08:35:54;;;;;;;30.48;13.95;;;;;;;-1.21;100.00;99902.50;5045569;28;20099;-77
2023/12/19 08:38:19;;;;;;;30.83;14.30;;;;;;;-0.98;100.00;99890.34;5066140;28;20020;-77
2023/12/19 08:40:45;;;;;;;31.88;14.55;;;;;;;-0.98;100.00;99869.94;5047783;28;20033;-77
2023/12/19 08:43:10;;;;;;;28.02;13.70;;;;;;;-0.83;100.00;99873.38;5076175;28;20028;-76
2023/12/19 08:45:36;;;;;;;28.00;13.38;;;;;;;-0.79;100.00;99869.53;5072476;28;20051;-76
2023/12/19 08:48:03;;;;;;;26.88;13.85;;;;;;;-0.49;100.00;99893.19;5048652;28;20021;-76
2023/12/19 08:50:29;;;;;;;24.83;12.60;;;;;;;-0.54;100.00;99873.19;5053837;28;20130;-76
2023/12/19 08:52:54;;;;;;;26.45;10.85;;;;;;;-0.51;100.00;99873.81;5048195;28;20325;-76
2023/12/19 08:55:20;;;;;;;26.13;12.77;;;;;;;-0.29;100.00;99851.91;5066235;28;20080;-76
2023/12/19 08:57:45;;;;;;;23.63;12.65;;;;;;;-0.16;100.00;99870.47;5047834;28;20028;-75
2023/12/19 09:00:15;;;;;;;23.88;11.93;;;;;;;0.04;100.00;99841.63;5050370;28;20036;-75
2023/12/19 09:02:42;;;;;;;26.95;12.02;;;;;;;0.33;100.00;99831.50;5056778;28;20053;-75
2023/12/19 09:05:12;;;;;;;22.67;11.25;;;;;;;0.62;100.00;99830.19;5028597;28;20325;-75
2023/12/19 09:07:38;;;;;;;24.52;10.25;;;;;;;0.98;100.00;99832.88;5064436;28;20020;-76
2023/12/19 09:10:05;;;;;;;16.90;9.73;;;;;;;1.90;100.00;99821.19;5065267;28;20225;-76
2023/12/19 09:12:30;;;;;;;18.63;9.75;;;;;;;3.54;100.00;99803.97;5048491;28;20017;-75
2023/12/19 09:14:56;;;;;;;15.55;9.63;;;;;;;5.38;100.00;99805.13;5065705;28;20563;-77
2023/12/19 09:17:21;;;;;;;19.48;10.82;;;;;;;6.63;100.00;99789.38;5060988;28;20375;-78
2023/12/19 09:19:46;;;;;;;18.50;9.88;;;;;;;7.54;100.00;99798.94;5061404;28;20032;-78
2023/12/19 09:22:12;;;;;;;16.63;10.07;;;;;;;6.55;100.00;99790.13;5066919;28;20033;-80
2023/12/19 09:24:37;;;;;;;19.98;10.70;;;;;;;5.88;100.00;99786.00;5075353;28;20028;-79
2023/12/19 09:27:03;;;;;;;23.58;12.70;;;;;;;5.87;100.00;99774.41;5057199;28;20025;-79
2023/12/19 09:29:28;;;;;;;18.60;10.52;;;;;;;7.32;100.00;99800.34;5070043;28;20039;-79
2023/12/19 09:31:54;;;;;;;26.33;14.52;;;;;;;8.17;100.00;99801.25;5091882;28;20024;-78
2023/12/19 09:34:19;;;;;;;17.38;11.02;;;;;;;9.48;100.00;99809.50;5060867;28;20036;-78
2023/12/19 09:36:45;;;;;;;16.55;10.52;;;;;;;9.20;94.50;99801.78;5056509;28;20043;-78
2023/12/19 09:39:14;;;;;;;16.73;9.40;;;;;;;9.09;94.79;99795.88;5061748;28;20018;-78
2023/12/19 09:41:41;;;;;;;15.73;10.65;;;;;;;7.37;100.00;99809.63;5061997;28;20036;-78
2023/12/19 09:44:07;;;;;;;19.02;10.63;;;;;;;6.79;100.00;99821.78;5076736;28;20025;-78
2023/12/19 09:46:33;;;;;;;13.93;9.75;;;;;;;6.03;100.00;99810.56;5070875;28;20051;-78
2023/12/19 09:49:00;;;;;;;17.17;10.70;;;;;;;5.67;100.00;99813.06;5069003;28;20017;-78
2023/12/19 09:51:32;;;;;;;15.05;9.25;;;;;;;5.77;100.00;99813.88;5074875;28;20056;-77
2023/12/19 09:54:00;;;;;;;16.00;9.98;;;;;;;5.12;100.00;99780.75;5073541;28;20071;-77
2023/12/19 09:56:26;;;;;;;17.17;9.25;;;;;;;4.48;100.00;99807.19;5056027;28;20039;-77
2023/12/19 09:58:51;;;;;;;19.25;10.75;;;;;;;4.53;100.00;99779.94;5042800;28;20097;-77
2023/12/19 10:01:17;;;;;;;19.52;12.23;;;;;;;4.23;100.00;99756.81;5032315;28;20038;-77
2023/12/19 10:03:43;;;;;;;26.08;11.02;;;;;;;4.01;100.00;99784.66;5046841;28;20055;-76
2023/12/19 10:06:09;;;;;;;18.55;10.52;;;;;;;3.54;100.00;99793.25;5071290;28;20022;-76
2023/12/19 10:08:35;;;;;;;15.07;9.40;;;;;;;3.65;100.00;99773.56;5084447;28;20027;-76
2023/12/19 10:11:00;;;;;;;17.80;9.23;;;;;;;4.44;100.00;99786.16;5061541;28;20024;-76
2023/12/19 10:13:31;;;;;;;14.70;8.80;;;;;;;5.02;100.00;99743.22;5041700;28;20020;-76
2023/12/19 10:16:32;;;;;;;14.82;8.77;;;;;;;5.62;100.00;99794.72;5034377;28;20028;-76
2023/12/19 10:18:55;;;;;;;12.10;7.93;;;;;;;6.03;100.00;99786.38;5061704;28;20025;-76
2023/12/19 10:21:22;;;;;;;15.10;8.27;;;;;;;6.38;100.00;99757.84;5063667;28;20031;-77
2023/12/19 10:23:47;;;;;;;16.75;8.35;;;;;;;6.51;100.00;99777.97;5064272;28;20044;-77
2023/12/19 10:26:13;;;;;;;15.18;8.35;;;;;;;6.50;100.00;99757.47;5073239;28;20020;-77
2023/12/19 10:28:40;;;;;;;14.00;8.82;;;;;;;6.87;100.00;99767.22;5082928;22;20061;-79
2023/12/19 10:31:12;;;;;;;17.10;8.70;;;;;;;7.59;100.00;99740.06;5079275;28;20103;-77
2023/12/19 10:33:56;;;;;;;14.45;8.55;;;;;;;10.14;100.00;99750.66;5074124;28;20017;-77
2023/12/19 10:36:25;;;;;;;17.88;9.48;;;;;;;10.88;90.31;99740.19;5056960;28;20027;-76
2023/12/19 10:38:51;;;;;;;19.35;9.63;;;;;;;11.88;81.18;99719.19;5065802;28;20024;-75
2023/12/19 10:41:26;;;;;;;14.27;7.95;;;;;;;13.14;74.44;99725.88;5043937;28;20094;-75
2023/12/19 10:43:56;;;;;;;13.93;8.48;;;;;;;12.91;71.71;99728.81;5045681;28;20078;-75
2023/12/19 10:46:24;;;;;;;12.27;7.55;;;;;;;13.72;69.12;99707.47;5056684;28;20330;-75
2023/12/19 10:48:52;;;;;;;16.58;8.60;;;;;;;13.34;68.55;99710.59;5025865;28;20064;-75
2023/12/19 10:51:28;;;;;;;11.98;7.82;;;;;;;14.29;65.68;99723.59;5035065;28;20021;-75
2023/12/19 10:54:00;;;;;;;12.25;8.15;;;;;;;13.40;66.73;99713.56;5053717;28;20032;-75
2023/12/19 10:56:31;;;;;;;13.63;7.68;;;;;;;13.27;67.17;99704.28;5061168;28;20234;-75
2023/12/19 10:58:59;;;;;;;11.43;7.75;;;;;;;13.03;68.28;99702.00;5053950;28;20032;-76
2023/12/19 11:01:26;;;;;;;12.90;7.18;;;;;;;13.25;66.35;99700.88;5052694;28;20024;-76
2023/12/19 11:03:57;;;;;;;12.88;7.38;;;;;;;14.04;66.20;99696.91;5056700;28;20020;-76
2023/12/19 11:06:27;;;;;;;13.68;7.55;;;;;;;13.27;65.13;99687.97;5043321;28;20021;-76